createdAt,value
2022-12-08T00:02:02.195Z,70.94
2022-12-08T00:04:51.000Z,70.96
2022-12-08T00:07:36.495Z,70.88
2022-12-08T00:10:25.218Z,70.71
2022-12-08T00:12:53.310Z,70.64
2022-12-08T00:15:21.382Z,70.66
2022-12-08T00:17:50.982Z,70.64
2022-12-08T00:20:19.102Z,70.74
2022-12-08T00:22:47.567Z,70.63
2022-12-08T00:25:15.880Z,70.53
2022-12-08T00:27:44.183Z,70.52
2022-12-08T00:30:12.764Z,70.63
2022-12-08T00:32:40.925Z,70.52
2022-12-08T00:35:10.665Z,70.57
2022-12-08T00:37:38.684Z,70.53
2022-12-08T00:40:08.166Z,70.47
2022-12-08T00:42:36.180Z,70.60
2022-12-08T00:45:04.441Z,70.43
2022-12-08T00:47:32.493Z,70.44
2022-12-08T00:50:01.602Z,70.52
2022-12-08T00:52:31.326Z,70.50
2022-12-08T00:54:59.561Z,70.46
2022-12-08T00:57:28.444Z,70.57
2022-12-08T00:59:57.244Z,70.39
2022-12-08T01:02:25.792Z,70.41
2022-12-08T01:04:53.951Z,70.37
2022-12-08T01:07:21.990Z,70.44
2022-12-08T01:09:51.483Z,70.55
2022-12-08T01:12:19.697Z,70.36
2022-12-08T01:14:47.732Z,70.39
2022-12-08T01:17:16.171Z,70.38
2022-12-08T01:19:44.397Z,70.37
2022-12-08T01:22:12.474Z,70.13
2022-12-08T01:24:40.647Z,70.44
2022-12-08T01:27:10.036Z,70.18
2022-12-08T01:29:38.394Z,70.32
2022-12-08T01:32:06.540Z,70.45
2022-12-08T01:34:34.856Z,70.43
2022-12-08T01:37:02.915Z,70.46
2022-12-08T01:39:31.126Z,70.34
2022-12-08T01:41:59.247Z,70.35
2022-12-08T01:44:58.638Z,70.59
2022-12-08T01:47:32.994Z,70.33
2022-12-08T01:50:02.539Z,70.25
2022-12-08T01:52:36.745Z,70.14
2022-12-08T01:55:10.041Z,70.21
2022-12-08T01:57:43.479Z,70.22
2022-12-08T02:00:16.291Z,69.95
2022-12-08T02:02:54.364Z,70.17
2022-12-08T02:05:24.726Z,70.23
2022-12-08T02:07:53.741Z,70.13
2022-12-08T02:10:23.937Z,70.16
2022-12-08T02:12:55.711Z,70.16
2022-12-08T02:15:34.433Z,70.01
2022-12-08T02:18:16.358Z,70.03
2022-12-08T02:20:54.827Z,70.09
2022-12-08T02:23:32.628Z,69.91
2022-12-08T02:26:33.333Z,70.05
2022-12-08T02:29:19.849Z,70.07
2022-12-08T02:32:09.563Z,70.04
2022-12-08T02:34:45.479Z,69.72
2022-12-08T02:37:19.826Z,69.92
2022-12-08T02:39:54.175Z,69.95
2022-12-08T02:42:28.903Z,69.94
2022-12-08T02:45:02.674Z,69.79
2022-12-08T02:47:33.268Z,69.86
2022-12-08T02:50:03.444Z,69.81
2022-12-08T02:52:41.912Z,69.63
2022-12-08T02:55:16.876Z,69.80
2022-12-08T02:57:57.776Z,69.80
2022-12-08T03:00:28.483Z,69.58
2022-12-08T03:03:09.204Z,69.96
2022-12-08T03:05:59.114Z,69.81
2022-12-08T03:08:36.511Z,69.72
2022-12-08T03:11:12.806Z,69.56
2022-12-08T03:13:44.809Z,69.75
2022-12-08T03:16:17.062Z,69.74
2022-12-08T03:18:49.860Z,69.66
2022-12-08T03:21:21.835Z,69.67
2022-12-08T03:23:53.396Z,69.87
2022-12-08T03:26:32.434Z,69.73
2022-12-08T03:29:00.985Z,69.60
2022-12-08T03:31:35.159Z,69.69
2022-12-08T03:34:04.459Z,69.66
2022-12-08T03:36:34.074Z,69.68
2022-12-08T03:39:02.205Z,69.62
2022-12-08T03:41:30.538Z,69.61
2022-12-08T03:44:00.472Z,69.63
2022-12-08T03:49:00.671Z,69.59
2022-12-08T03:51:29.246Z,69.57
2022-12-08T03:53:58.658Z,69.55
2022-12-08T03:56:29.254Z,69.49
2022-12-08T03:58:57.449Z,69.59
2022-12-08T04:01:28.279Z,69.61
2022-12-08T04:03:56.675Z,69.43
2022-12-08T04:06:25.101Z,69.46
2022-12-08T04:08:53.547Z,69.60
2022-12-08T04:11:23.076Z,69.68
2022-12-08T04:13:51.519Z,69.44
2022-12-08T04:16:21.407Z,69.51
2022-12-08T04:18:50.529Z,69.55
2022-12-08T04:21:19.015Z,69.47
2022-12-08T04:23:47.607Z,69.61
2022-12-08T04:26:16.531Z,69.62
2022-12-08T04:28:46.142Z,69.60
2022-12-08T04:31:14.408Z,69.57
2022-12-08T04:33:42.530Z,69.45
2022-12-08T04:36:11.175Z,69.49
2022-12-08T04:38:39.160Z,69.38
2022-12-08T04:41:07.329Z,69.38
2022-12-08T04:43:36.269Z,69.41
2022-12-08T04:46:09.235Z,69.51
2022-12-08T04:48:39.560Z,69.26
2022-12-08T04:51:08.437Z,69.29
2022-12-08T04:53:36.524Z,69.26
2022-12-08T04:56:04.946Z,69.20
2022-12-08T04:58:33.267Z,69.31
2022-12-08T05:01:01.446Z,69.33
2022-12-08T05:03:30.922Z,69.45
2022-12-08T05:06:00.400Z,69.39
2022-12-08T05:08:29.433Z,69.52
2022-12-08T05:11:03.273Z,69.59
2022-12-08T05:13:31.555Z,69.45
2022-12-08T05:16:05.044Z,69.58
2022-12-08T05:18:34.645Z,69.45
2022-12-08T05:21:05.985Z,69.50
2022-12-08T05:23:34.310Z,69.61
2022-12-08T05:26:02.804Z,69.52
2022-12-08T05:28:46.101Z,69.51
2022-12-08T05:31:15.633Z,69.52
2022-12-08T05:33:46.362Z,69.49
2022-12-08T05:36:16.319Z,69.52
2022-12-08T05:38:44.790Z,69.48
2022-12-08T05:41:16.386Z,69.53
2022-12-08T05:43:44.466Z,69.19
2022-12-08T05:46:12.907Z,69.47
2022-12-08T05:48:41.372Z,69.57
2022-12-08T05:51:19.687Z,69.57
2022-12-08T05:53:48.782Z,69.49
2022-12-08T05:56:17.014Z,69.59
2022-12-08T05:58:46.081Z,69.49
2022-12-08T06:01:23.737Z,69.56
2022-12-08T06:03:51.885Z,69.44
2022-12-08T06:06:21.828Z,69.50
2022-12-08T06:08:50.236Z,69.57
2022-12-08T06:11:23.261Z,69.49
2022-12-08T06:13:52.123Z,69.50
2022-12-08T06:16:20.568Z,69.47
2022-12-08T06:18:48.928Z,69.59
2022-12-08T06:21:18.347Z,69.61
2022-12-08T06:23:51.571Z,69.69
2022-12-08T06:26:20.451Z,69.56
2022-12-08T06:28:49.347Z,69.61
2022-12-08T06:31:19.658Z,69.42
2022-12-08T06:33:48.516Z,69.63
2022-12-08T06:36:17.805Z,69.38
2022-12-08T06:38:46.492Z,69.42
2022-12-08T06:41:16.096Z,69.33
2022-12-08T06:43:45.114Z,69.31
2022-12-08T06:46:15.589Z,69.38
2022-12-08T06:48:43.976Z,69.33
2022-12-08T06:51:13.832Z,69.29
2022-12-08T06:53:42.815Z,69.37
2022-12-08T06:56:11.860Z,69.30
2022-12-08T06:58:41.318Z,69.34
2022-12-08T07:01:11.272Z,69.15
2022-12-08T07:03:40.701Z,69.29
2022-12-08T07:06:09.080Z,69.31
2022-12-08T07:08:37.288Z,69.18
2022-12-08T07:11:09.700Z,69.31
2022-12-08T07:13:38.148Z,69.39
2022-12-08T07:16:09.373Z,69.00
2022-12-08T07:18:38.030Z,69.13
2022-12-08T07:21:07.955Z,69.34
2022-12-08T07:23:37.051Z,69.25
2022-12-08T07:26:07.848Z,69.30
2022-12-08T07:28:38.859Z,69.13
2022-12-08T07:31:10.692Z,69.24
2022-12-08T07:33:39.019Z,69.10
2022-12-08T07:36:07.951Z,69.41
2022-12-08T07:38:36.390Z,68.97
2022-12-08T07:41:04.436Z,69.10
2022-12-08T07:43:32.965Z,69.14
2022-12-08T07:46:01.428Z,69.04
2022-12-08T07:48:31.087Z,69.19
2022-12-08T07:51:02.368Z,69.13
2022-12-08T07:53:30.478Z,69.19
2022-12-08T07:55:58.494Z,69.29
2022-12-08T07:58:27.746Z,69.03
2022-12-08T08:00:55.900Z,69.13
2022-12-08T08:03:24.097Z,69.25
2022-12-08T08:05:54.490Z,69.16
2022-12-08T08:08:22.577Z,69.28
2022-12-08T08:10:50.716Z,69.17
2022-12-08T08:13:18.699Z,69.21
2022-12-08T08:15:46.829Z,69.16
2022-12-08T08:18:14.990Z,69.11
2022-12-08T08:20:43.046Z,69.21
2022-12-08T08:23:12.591Z,69.13
2022-12-08T08:25:40.609Z,69.25
2022-12-08T08:28:09.377Z,69.15
2022-12-08T08:30:37.589Z,69.19
2022-12-08T08:33:05.642Z,69.39
2022-12-08T08:35:34.436Z,69.39
2022-12-08T08:38:02.555Z,69.37
2022-12-08T08:40:32.106Z,69.27
2022-12-08T08:43:01.860Z,69.24
2022-12-08T08:45:29.974Z,69.41
2022-12-08T08:47:58.475Z,69.47
2022-12-08T08:50:26.620Z,69.43
2022-12-08T08:52:54.801Z,69.48
2022-12-08T08:55:23.052Z,69.49
2022-12-08T08:57:52.572Z,69.45
2022-12-08T09:00:21.387Z,69.38
2022-12-08T09:02:50.011Z,69.53
2022-12-08T09:05:18.164Z,69.56
2022-12-08T09:07:46.257Z,69.46
2022-12-08T09:10:14.551Z,69.49
2022-12-08T09:12:42.657Z,69.51
2022-12-08T09:15:12.773Z,69.66
2022-12-08T09:17:40.862Z,69.44
2022-12-08T09:20:09.730Z,69.65
2022-12-08T09:22:38.081Z,69.42
2022-12-08T09:25:06.890Z,69.49
2022-12-08T09:27:35.015Z,69.45
2022-12-08T09:30:03.693Z,69.51
2022-12-08T09:32:33.556Z,69.60
2022-12-08T09:35:01.857Z,69.36
2022-12-08T09:37:29.933Z,69.47
2022-12-08T09:39:58.234Z,69.44
2022-12-08T09:42:34.863Z,69.61
2022-12-08T09:45:10.679Z,69.44
2022-12-08T09:47:43.610Z,69.41
2022-12-08T09:50:17.148Z,69.55
2022-12-08T09:52:50.193Z,69.52
2022-12-08T09:55:34.892Z,69.46
2022-12-08T09:58:06.093Z,69.47
2022-12-08T10:00:35.321Z,69.65
2022-12-08T10:03:05.216Z,69.59
2022-12-08T10:05:39.061Z,69.50
2022-12-08T10:08:12.845Z,69.59
2022-12-08T10:10:58.382Z,69.48
2022-12-08T10:13:37.343Z,69.67
2022-12-08T10:16:23.043Z,69.62
2022-12-08T10:19:06.544Z,69.61
2022-12-08T10:21:34.720Z,69.58
2022-12-08T10:24:07.215Z,69.61
2022-12-08T10:26:35.273Z,69.95
2022-12-08T10:29:03.678Z,69.91
2022-12-08T10:31:32.923Z,69.75
2022-12-08T10:34:17.415Z,69.72
2022-12-08T10:36:47.491Z,69.62
2022-12-08T10:39:32.938Z,69.68
2022-12-08T10:42:19.143Z,69.75
2022-12-08T10:45:01.662Z,69.75
2022-12-08T10:47:31.436Z,69.68
2022-12-08T10:50:20.511Z,69.71
2022-12-08T10:52:56.600Z,69.91
2022-12-08T10:55:25.345Z,69.89
2022-12-08T10:57:53.545Z,69.84
2022-12-08T11:00:23.346Z,69.89
2022-12-08T11:02:55.333Z,69.98
2022-12-08T11:05:30.462Z,69.97
2022-12-08T11:07:59.430Z,69.96
2022-12-08T11:10:36.785Z,69.88
2022-12-08T11:13:07.589Z,69.90
2022-12-08T11:15:41.547Z,70.00
2022-12-08T11:18:22.848Z,69.92
2022-12-08T11:21:02.948Z,69.96
2022-12-08T11:23:32.122Z,70.01
2022-12-08T11:26:11.661Z,69.99
2022-12-08T11:28:43.359Z,70.02
2022-12-08T11:31:22.900Z,70.09
2022-12-08T11:33:53.510Z,70.13
2022-12-08T11:36:27.079Z,70.10
2022-12-08T11:38:59.176Z,70.06
2022-12-08T11:41:33.611Z,70.12
2022-12-08T11:44:12.350Z,70.07
2022-12-08T11:46:44.808Z,70.09
2022-12-08T11:49:15.602Z,70.16
2022-12-08T11:51:49.708Z,70.16
2022-12-08T11:54:24.441Z,70.11
2022-12-08T11:56:55.659Z,70.14
2022-12-08T11:59:29.692Z,70.10
2022-12-08T12:01:59.425Z,70.12
2022-12-08T12:04:33.420Z,70.26
2022-12-08T12:07:34.530Z,70.25
2022-12-08T12:10:34.956Z,70.25
2022-12-08T12:13:14.338Z,70.31
2022-12-08T12:16:27.743Z,70.08
2022-12-08T12:19:00.127Z,70.42
2022-12-08T12:21:34.928Z,70.07
2022-12-08T12:24:09.350Z,70.37
2022-12-08T12:26:49.482Z,70.36
2022-12-08T12:29:20.395Z,70.38
2022-12-08T12:31:53.245Z,70.33
2022-12-08T12:34:24.072Z,70.16
2022-12-08T12:36:55.843Z,70.24
2022-12-08T12:39:30.025Z,70.43
2022-12-08T12:42:00.241Z,70.32
2022-12-08T12:44:40.635Z,70.35
2022-12-08T12:47:36.440Z,70.19
2022-12-08T12:50:10.772Z,70.29
2022-12-08T12:52:49.434Z,70.37
2022-12-08T12:55:50.664Z,70.33
2022-12-08T12:58:40.848Z,70.19
2022-12-08T13:01:46.145Z,70.15
2022-12-08T13:04:14.442Z,70.35
2022-12-08T13:06:46.799Z,70.38
2022-12-08T13:09:22.778Z,70.47
2022-12-08T13:11:55.193Z,70.52
2022-12-08T13:14:35.723Z,70.19
2022-12-08T13:17:09.085Z,70.56
2022-12-08T13:19:39.913Z,70.30
2022-12-08T13:22:45.303Z,70.33
2022-12-08T13:25:49.901Z,70.23
2022-12-08T13:28:29.735Z,70.35
2022-12-08T13:30:59.682Z,70.35
2022-12-08T13:33:31.563Z,70.35
2022-12-08T13:36:23.453Z,70.66
2022-12-08T13:38:56.484Z,70.54
2022-12-08T13:41:35.837Z,70.67
2022-12-08T13:45:03.667Z,70.64
2022-12-08T13:58:31.673Z,70.63
2022-12-08T14:01:06.619Z,70.50
2022-12-08T14:04:11.785Z,70.57
2022-12-08T14:06:37.775Z,70.53
2022-12-08T14:09:13.451Z,70.52
2022-12-08T14:11:45.220Z,70.52
2022-12-08T14:14:32.678Z,70.56
2022-12-08T14:17:08.063Z,70.53
2022-12-08T14:19:37.015Z,70.46
2022-12-08T14:22:12.624Z,70.56
2022-12-08T14:24:41.979Z,70.49
2022-12-08T14:27:16.505Z,70.32
2022-12-08T14:29:47.834Z,70.55
2022-12-08T14:32:25.997Z,70.50
2022-12-08T14:34:56.706Z,70.52
2022-12-08T14:37:27.518Z,70.52
2022-12-08T14:40:01.817Z,70.40
2022-12-08T14:42:30.989Z,70.61
2022-12-08T14:45:05.063Z,70.49
2022-12-08T14:47:34.878Z,70.60
2022-12-08T14:50:05.344Z,70.44
2022-12-08T14:52:33.842Z,70.51
2022-12-08T14:55:01.934Z,70.44
2022-12-08T14:57:36.385Z,70.53
2022-12-08T15:00:12.448Z,70.50
2022-12-08T15:02:47.199Z,70.34
2022-12-08T15:05:19.226Z,70.43
2022-12-08T15:07:50.433Z,70.51
2022-12-08T15:10:27.644Z,70.32
2022-12-08T15:13:04.937Z,70.51
2022-12-08T15:15:47.959Z,70.43
2022-12-08T15:18:19.075Z,70.49
2022-12-08T15:20:50.225Z,70.41
2022-12-08T15:23:25.639Z,70.43
2022-12-08T15:25:54.832Z,70.39
2022-12-08T15:28:29.457Z,70.51
2022-12-08T15:31:00.234Z,70.62
2022-12-08T15:33:28.576Z,70.41
2022-12-08T15:35:56.779Z,70.52
2022-12-08T15:38:27.222Z,70.42
2022-12-08T15:40:56.213Z,70.36
2022-12-08T15:43:24.455Z,70.43
2022-12-08T15:45:59.419Z,70.55
2022-12-08T15:48:31.403Z,70.38
2022-12-08T15:50:59.957Z,70.61
2022-12-08T15:53:28.143Z,70.41
2022-12-08T15:58:54.242Z,70.53
2022-12-08T16:01:24.227Z,70.47
2022-12-08T16:04:47.258Z,70.36
2022-12-08T16:09:38.519Z,70.22
2022-12-08T16:12:25.948Z,70.44
2022-12-08T16:17:42.740Z,70.43
2022-12-08T16:20:16.843Z,70.35
2022-12-08T16:22:59.591Z,70.33
2022-12-08T16:26:00.499Z,70.30
2022-12-08T16:28:52.677Z,70.15
2022-12-08T16:31:16.648Z,70.52
2022-12-08T16:33:46.892Z,70.23
2022-12-08T16:36:16.408Z,70.32
2022-12-08T16:38:44.860Z,70.32
2022-12-08T16:41:32.739Z,70.35
2022-12-08T16:44:03.183Z,70.47
2022-12-08T16:46:31.364Z,70.36
2022-12-08T16:48:59.743Z,70.42
2022-12-08T16:51:29.630Z,70.38
2022-12-08T16:53:58.647Z,70.41
2022-12-08T16:56:32.680Z,70.35
2022-12-08T16:59:02.562Z,70.06
2022-12-08T17:01:31.435Z,70.24
2022-12-08T17:04:30.966Z,70.41
2022-12-08T17:06:50.962Z,70.40
2022-12-08T17:09:19.294Z,70.36
2022-12-08T17:11:47.389Z,70.42
2022-12-08T17:14:16.192Z,70.11
2022-12-08T17:16:45.308Z,70.38
2022-12-08T17:19:15.328Z,70.34
2022-12-08T17:21:44.418Z,70.36
2022-12-08T17:24:18.602Z,70.37
2022-12-08T17:26:51.665Z,70.40
2022-12-08T17:29:19.817Z,70.37
2022-12-08T17:31:50.596Z,70.41
2022-12-08T17:34:18.937Z,70.29
2022-12-08T17:36:47.120Z,70.16
2022-12-08T17:39:18.640Z,70.20
2022-12-08T17:41:48.028Z,70.23
2022-12-08T17:44:18.231Z,70.31
2022-12-08T17:46:52.136Z,70.46
2022-12-08T17:49:23.474Z,70.35
2022-12-08T17:51:54.227Z,70.59
2022-12-08T17:54:23.735Z,70.49
2022-12-08T17:56:52.570Z,70.36
2022-12-08T17:59:20.704Z,70.09
2022-12-08T18:01:48.810Z,70.36
2022-12-08T18:04:17.021Z,70.24
2022-12-08T18:06:45.151Z,70.70
2022-12-08T18:09:14.028Z,70.44
2022-12-08T18:11:44.315Z,70.32
2022-12-08T18:14:14.349Z,70.33
2022-12-08T18:16:44.816Z,70.33
2022-12-08T18:19:14.267Z,70.38
2022-12-08T18:21:43.159Z,70.25
2022-12-08T18:24:18.083Z,70.11
2022-12-08T18:26:47.849Z,70.30
2022-12-08T18:29:16.010Z,70.27
2022-12-08T18:31:44.438Z,70.23
2022-12-08T18:34:12.617Z,70.31
2022-12-08T18:36:40.751Z,70.41
2022-12-08T18:39:22.719Z,70.69
2022-12-08T18:41:52.282Z,70.36
2022-12-08T18:44:20.517Z,70.34
2022-12-08T18:46:49.401Z,70.33
2022-12-08T18:49:19.805Z,70.31
2022-12-08T18:51:48.144Z,70.13
2022-12-08T18:54:16.428Z,70.23
2022-12-08T18:56:44.594Z,70.26
2022-12-08T18:59:14.340Z,70.68
2022-12-08T19:01:42.851Z,70.25
2022-12-08T19:04:27.924Z,70.37
2022-12-08T19:06:58.002Z,70.38
2022-12-08T19:09:28.881Z,70.42
2022-12-08T19:11:57.986Z,70.41
2022-12-08T19:14:30.532Z,70.38
2022-12-08T19:16:59.119Z,70.41
2022-12-08T19:19:27.328Z,70.46
2022-12-08T19:21:55.627Z,70.41
2022-12-08T19:24:23.698Z,70.48
2022-12-08T19:26:51.993Z,70.35
2022-12-08T19:29:20.274Z,70.53
2022-12-08T19:31:49.895Z,70.57
2022-12-08T19:34:17.957Z,70.64
2022-12-08T19:36:46.206Z,70.62
2022-12-08T19:39:37.255Z,70.49
2022-12-08T19:42:24.871Z,70.63
2022-12-08T19:44:55.632Z,70.59
2022-12-08T19:47:27.918Z,70.66
2022-12-08T19:50:17.792Z,70.65
2022-12-08T19:52:46.337Z,70.67
2022-12-08T19:55:14.500Z,70.68
2022-12-08T19:57:42.887Z,70.82
2022-12-08T20:00:12.702Z,71.06
2022-12-08T20:02:42.353Z,71.12
2022-12-08T20:05:15.061Z,71.17
2022-12-08T20:07:43.737Z,71.47
2022-12-08T20:10:17.981Z,71.54
2022-12-08T20:12:46.213Z,71.64
2022-12-08T20:15:14.893Z,71.76
2022-12-08T20:17:44.748Z,71.66
2022-12-08T20:20:15.443Z,71.69
2022-12-08T20:22:45.294Z,72.03
2022-12-08T20:25:14.422Z,71.68
2022-12-08T20:27:42.900Z,71.73
2022-12-08T20:30:16.745Z,71.78
2022-12-08T20:32:46.982Z,71.67
2022-12-08T20:35:16.998Z,71.71
2022-12-08T20:37:45.141Z,71.66
2022-12-08T20:40:13.838Z,71.52
2022-12-08T20:42:41.980Z,71.49
2022-12-08T20:45:10.842Z,71.51
2022-12-08T20:47:39.288Z,71.55
2022-12-08T20:50:11.002Z,71.62
2022-12-08T20:52:39.570Z,71.47
2022-12-08T20:55:10.565Z,71.45
2022-12-08T20:57:38.916Z,71.35
2022-12-08T21:00:09.152Z,71.62
2022-12-08T21:02:43.252Z,71.44
2022-12-08T21:05:16.737Z,71.72
2022-12-08T21:07:45.402Z,71.55
2022-12-08T21:10:14.124Z,71.43
2022-12-08T21:12:42.434Z,71.24
2022-12-08T21:15:12.466Z,71.15
2022-12-08T21:17:40.954Z,71.30
2022-12-08T21:20:10.585Z,71.24
2022-12-08T21:22:40.999Z,71.22
2022-12-08T21:25:09.916Z,71.21
2022-12-08T21:27:39.031Z,70.95
2022-12-08T21:30:09.138Z,70.94
2022-12-08T21:32:39.070Z,70.88
2022-12-08T21:35:08.325Z,70.66
2022-12-08T21:37:37.030Z,70.70
2022-12-08T21:40:09.238Z,70.81
2022-12-08T21:42:48.977Z,70.72
2022-12-08T21:45:19.265Z,70.83
2022-12-08T21:47:49.384Z,70.79
2022-12-08T21:50:18.889Z,70.80
2022-12-08T21:52:50.104Z,70.90
2022-12-08T21:55:20.421Z,70.77
2022-12-08T21:57:48.493Z,70.99
2022-12-08T22:00:18.283Z,71.08
2022-12-08T22:02:46.972Z,71.04
2022-12-08T22:05:15.369Z,71.05
2022-12-08T22:07:43.945Z,70.95
2022-12-08T22:10:12.493Z,71.14
2022-12-08T22:12:42.884Z,70.97
2022-12-08T22:15:12.059Z,70.96
2022-12-08T22:17:42.223Z,71.00
2022-12-08T22:20:13.436Z,71.03
2022-12-08T22:22:42.405Z,70.94
2022-12-08T22:25:12.519Z,70.92
2022-12-08T22:27:42.691Z,70.81
2022-12-08T22:30:12.040Z,71.12
2022-12-08T22:32:40.436Z,70.95
2022-12-08T22:35:09.637Z,70.81
2022-12-08T22:37:37.758Z,70.77
2022-12-08T22:40:08.246Z,70.84
2022-12-08T22:42:36.930Z,70.62
2022-12-08T22:45:07.575Z,70.70
2022-12-08T22:47:35.945Z,70.79
2022-12-08T22:50:05.761Z,70.92
2022-12-08T22:52:34.127Z,70.82
2022-12-08T22:55:02.260Z,70.67
2022-12-08T22:57:30.502Z,70.87
2022-12-08T22:59:58.743Z,70.76
2022-12-08T23:02:28.385Z,70.74
2022-12-08T23:04:57.272Z,70.59
2022-12-08T23:07:25.691Z,70.57
2022-12-08T23:09:54.131Z,70.75
2022-12-08T23:12:24.061Z,70.67
2022-12-08T23:14:52.269Z,70.79
2022-12-08T23:17:20.708Z,70.64
2022-12-08T23:19:50.567Z,70.76
2022-12-08T23:22:18.904Z,70.79
2022-12-08T23:24:46.983Z,70.66
2022-12-08T23:27:15.350Z,70.88
2022-12-08T23:29:43.478Z,70.72
2022-12-08T23:32:11.796Z,70.75
2022-12-08T23:34:40.035Z,70.63
2022-12-08T23:37:09.729Z,70.74
2022-12-08T23:39:37.859Z,70.74
2022-12-08T23:42:06.220Z,70.66
2022-12-08T23:44:34.476Z,70.75
2022-12-08T23:47:02.680Z,70.76
2022-12-08T23:49:31.222Z,70.62
2022-12-08T23:52:00.233Z,70.65
2022-12-08T23:54:29.951Z,70.59
2022-12-08T23:56:58.043Z,70.64
2022-12-08T23:59:26.154Z,70.75
